Time;durP1;ratioP1;P1;durP2;ratioP2;P2;SDS_P1;SDS_P2;PMS_P1;PMS_P2;Temp;Humidity;BMP_temperature;BMP_pressure;BME280_temperature;BME280_humidity;BME280_pressure;Samples;Min_cycle;Max_cycle;Signal;HPM_P1;HPM_P2
2023/10/31 00:04:46;;;;;;;11.88;3.95;;;;;;;;;;10238394;28;20065;-61
2023/10/31 00:09:47;;;;;;;7.97;3.10;;;;;;;;;;10247913;28;20098;-57
2023/10/31 00:14:47;;;;;;;10.48;3.60;;;;;;;;;;10246295;28;20372;-55
2023/10/31 00:19:48;;;;;;;12.27;3.72;;;;;;;;;;10246430;28;20600;-58
2023/10/31 00:24:49;;;;;;;10.27;3.60;;;;;;;;;;10236391;28;20435;-56
2023/10/31 00:29:49;;;;;;;7.25;3.15;;;;;;;;;;10247636;28;20091;-56
2023/10/31 00:34:50;;;;;;;8.30;2.95;;;;;;;;;;10240859;28;20031;-54
2023/10/31 00:39:50;;;;;;;8.98;3.35;;;;;;;;;;10245661;28;20100;-56
2023/10/31 00:44:51;;;;;;;7.13;2.85;;;;;;;;;;10243304;28;20031;-56
2023/10/31 00:49:53;;;;;;;10.90;3.17;;;;;;;;;;10244919;28;20422;-57
2023/10/31 00:54:53;;;;;;;6.63;3.08;;;;;;;;;;10245121;28;20050;-57
2023/10/31 00:59:54;;;;;;;9.55;3.42;;;;;;;;;;10246090;28;20026;-62
2023/10/31 01:04:54;;;;;;;9.82;3.38;;;;;;;;;;10244565;28;20479;-57
2023/10/31 01:09:55;;;;;;;6.38;3.13;;;;;;;;;;10245003;29;20541;-57
2023/10/31 01:14:55;;;;;;;7.47;2.88;;;;;;;;;;10243665;28;20024;-56
2023/10/31 01:19:56;;;;;;;5.63;2.85;;;;;;;;;;10241128;28;20561;-55
2023/10/31 01:24:56;;;;;;;8.77;3.05;;;;;;;;;;10227501;28;20464;-56
2023/10/31 01:29:57;;;;;;;10.02;3.47;;;;;;;;;;10234313;28;20110;-55
2023/10/31 01:34:58;;;;;;;15.98;3.10;;;;;;;;;;10233214;28;20050;-55
2023/10/31 01:39:58;;;;;;;12.05;3.28;;;;;;;;;;10232671;28;20035;-55
2023/10/31 01:44:59;;;;;;;4.63;2.60;;;;;;;;;;10243819;29;20049;-54
2023/10/31 01:50:00;;;;;;;5.40;2.22;;;;;;;;;;10232008;28;20061;-54
2023/10/31 01:55:02;;;;;;;8.35;2.60;;;;;;;;;;10241422;29;20067;-55
2023/10/31 02:00:05;;;;;;;12.05;2.90;;;;;;;;;;10232117;28;20038;-55
2023/10/31 02:05:06;;;;;;;5.78;2.60;;;;;;;;;;10241987;28;20501;-54
2023/10/31 02:10:07;;;;;;;7.10;2.83;;;;;;;;;;10252373;28;20030;-55
2023/10/31 02:15:09;;;;;;;5.28;2.63;;;;;;;;;;10243927;28;20511;-55
2023/10/31 02:20:10;;;;;;;5.53;2.60;;;;;;;;;;10241368;28;20035;-55
2023/10/31 02:25:17;;;;;;;4.95;2.22;;;;;;;;;;10234165;28;20111;-55
2023/10/31 02:30:18;;;;;;;4.97;2.85;;;;;;;;;;10242677;28;20039;-56
2023/10/31 02:35:19;;;;;;;4.80;2.47;;;;;;;;;;10239997;28;20031;-55
2023/10/31 02:40:20;;;;;;;4.15;2.10;;;;;;;;;;10234155;29;20105;-52
2023/10/31 02:45:20;;;;;;;4.78;2.47;;;;;;;;;;10243870;28;20110;-59
2023/10/31 02:50:21;;;;;;;5.65;2.45;;;;;;;;;;10241415;28;20031;-53
2023/10/31 02:55:21;;;;;;;4.03;2.03;;;;;;;;;;10242568;28;20075;-55
2023/10/31 03:00:22;;;;;;;4.18;2.30;;;;;;;;;;10236666;29;20042;-55
2023/10/31 03:05:23;;;;;;;4.13;2.13;;;;;;;;;;10243472;29;20023;-55
2023/10/31 03:10:23;;;;;;;5.97;2.60;;;;;;;;;;10240803;28;20043;-55
2023/10/31 03:15:24;;;;;;;3.65;2.03;;;;;;;;;;10238599;29;20023;-56
2023/10/31 03:20:24;;;;;;;5.43;2.63;;;;;;;;;;10232591;28;20032;-57
2023/10/31 03:25:25;;;;;;;5.28;2.40;;;;;;;;;;10237214;29;20031;-55
2023/10/31 03:30:25;;;;;;;4.82;2.42;;;;;;;;;;10243526;28;20062;-53
2023/10/31 03:35:26;;;;;;;2.80;2.03;;;;;;;;;;10246586;28;20039;-53
2023/10/31 03:40:26;;;;;;;4.30;2.38;;;;;;;;;;10238788;29;20039;-54
2023/10/31 03:45:27;;;;;;;3.80;2.28;;;;;;;;;;10246399;28;20035;-56
2023/10/31 03:50:28;;;;;;;4.53;2.30;;;;;;;;;;10234616;29;20027;-54
2023/10/31 03:55:30;;;;;;;2.92;1.90;;;;;;;;;;10249226;28;20054;-55
2023/10/31 04:00:30;;;;;;;3.33;2.05;;;;;;;;;;10246497;28;20566;-53
2023/10/31 04:05:31;;;;;;;10.20;2.72;;;;;;;;;;10245614;28;20095;-54
2023/10/31 04:10:31;;;;;;;3.75;2.25;;;;;;;;;;10246779;28;20567;-55
2023/10/31 04:15:34;;;;;;;2.97;1.95;;;;;;;;;;10236237;28;20027;-55
2023/10/31 04:20:35;;;;;;;4.32;2.17;;;;;;;;;;10245361;28;20391;-56
2023/10/31 04:25:35;;;;;;;8.98;2.00;;;;;;;;;;10239997;29;20023;-55
2023/10/31 04:30:36;;;;;;;6.20;2.20;;;;;;;;;;10240730;28;20031;-57
2023/10/31 04:35:36;;;;;;;4.35;2.22;;;;;;;;;;10248115;28;20092;-56
2023/10/31 04:40:37;;;;;;;4.07;2.42;;;;;;;;;;10245603;29;20031;-57
2023/10/31 04:45:37;;;;;;;7.97;2.58;;;;;;;;;;10247393;28;20081;-55
2023/10/31 04:50:38;;;;;;;4.07;2.40;;;;;;;;;;10244753;28;20031;-55
2023/10/31 04:55:39;;;;;;;4.45;2.10;;;;;;;;;;10231744;28;20051;-55
2023/10/31 05:00:40;;;;;;;3.53;1.85;;;;;;;;;;10241629;28;20028;-55
2023/10/31 05:05:40;;;;;;;6.32;2.25;;;;;;;;;;10235719;29;20090;-57
2023/10/31 05:10:41;;;;;;;5.28;2.25;;;;;;;;;;10241903;28;20038;-52
2023/10/31 05:15:42;;;;;;;2.67;1.92;;;;;;;;;;10245960;28;20031;-54
2023/10/31 05:20:43;;;;;;;2.35;1.73;;;;;;;;;;10245026;28;20030;-55
2023/10/31 05:25:43;;;;;;;3.63;1.90;;;;;;;;;;10244212;28;20031;-54
2023/10/31 05:30:44;;;;;;;2.97;1.80;;;;;;;;;;10238340;28;20035;-54
2023/10/31 05:35:44;;;;;;;2.47;1.65;;;;;;;;;;10218021;28;20039;-54
2023/10/31 05:40:45;;;;;;;2.80;1.80;;;;;;;;;;10242595;28;20027;-55
2023/10/31 05:45:46;;;;;;;3.42;2.30;;;;;;;;;;10238201;29;20027;-53
2023/10/31 05:50:46;;;;;;;4.82;2.13;;;;;;;;;;10244574;28;20086;-53
2023/10/31 05:55:47;;;;;;;6.30;1.90;;;;;;;;;;10237795;28;20517;-55
2023/10/31 06:00:47;;;;;;;2.85;1.90;;;;;;;;;;10233753;28;20491;-56
2023/10/31 06:05:48;;;;;;;3.30;2.40;;;;;;;;;;10229216;28;20522;-56
2023/10/31 06:10:49;;;;;;;2.67;1.80;;;;;;;;;;10244097;28;20043;-60
2023/10/31 06:15:49;;;;;;;3.92;1.67;;;;;;;;;;10243896;28;20043;-57
2023/10/31 06:20:50;;;;;;;6.18;2.22;;;;;;;;;;10245640;28;20027;-59
2023/10/31 06:25:50;;;;;;;3.25;1.88;;;;;;;;;;10229993;28;20032;-56
2023/10/31 06:30:51;;;;;;;2.78;1.73;;;;;;;;;;10224284;29;20062;-57
2023/10/31 06:35:53;;;;;;;4.03;1.80;;;;;;;;;;10241167;28;20035;-57
2023/10/31 06:40:54;;;;;;;2.45;1.58;;;;;;;;;;10243750;28;20114;-63
2023/10/31 06:45:55;;;;;;;3.17;1.65;;;;;;;;;;10245082;28;20086;-55
2023/10/31 06:50:55;;;;;;;3.22;1.70;;;;;;;;;;10251731;28;20034;-57
2023/10/31 06:55:56;;;;;;;5.38;2.45;;;;;;;;;;10244240;28;20058;-60
2023/10/31 07:00:58;;;;;;;4.32;1.67;;;;;;;;;;10250967;28;20031;-52
2023/10/31 07:05:59;;;;;;;5.13;1.95;;;;;;;;;;10243318;28;20039;-54
2023/10/31 07:10:59;;;;;;;3.40;1.65;;;;;;;;;;10246198;28;20094;-52
2023/10/31 07:16:00;;;;;;;2.72;1.38;;;;;;;;;;10246147;28;20078;-51
2023/10/31 07:21:00;;;;;;;3.03;1.80;;;;;;;;;;10244897;28;20028;-51
2023/10/31 07:26:01;;;;;;;2.40;1.60;;;;;;;;;;10237121;28;20086;-55
2023/10/31 07:31:02;;;;;;;2.08;1.50;;;;;;;;;;10237925;28;20031;-53
2023/10/31 07:36:03;;;;;;;2.72;1.40;;;;;;;;;;10239936;28;20138;-60
2023/10/31 07:41:04;;;;;;;3.47;1.90;;;;;;;;;;10249815;28;20023;-59
2023/10/31 07:46:05;;;;;;;1.67;1.58;;;;;;;;;;10239153;28;20076;-54
2023/10/31 07:51:05;;;;;;;1.73;1.58;;;;;;;;;;10242049;29;20046;-61
2023/10/31 07:56:22;;;;;;;2.58;1.50;;;;;;;;;;10249020;28;20438;-51
2023/10/31 08:01:23;;;;;;;3.85;1.58;;;;;;;;;;10246799;28;20058;-52
2023/10/31 08:06:23;;;;;;;2.85;1.58;;;;;;;;;;10246160;28;20032;-50
2023/10/31 08:11:24;;;;;;;3.80;1.48;;;;;;;;;;10246803;28;20039;-58
2023/10/31 08:16:24;;;;;;;2.45;1.70;;;;;;;;;;10236515;28;20031;-54
2023/10/31 08:21:28;;;;;;;2.00;1.45;;;;;;;;;;10248293;28;20031;-63
2023/10/31 08:26:28;;;;;;;2.50;1.90;;;;;;;;;;10245370;29;20038;-54
2023/10/31 08:31:29;;;;;;;2.17;1.50;;;;;;;;;;10243811;28;20042;-58
2023/10/31 08:36:29;;;;;;;2.47;1.48;;;;;;;;;;10242254;28;20039;-60
2023/10/31 08:41:30;;;;;;;6.85;2.20;;;;;;;;;;10244172;28;20046;-59
2023/10/31 08:46:31;;;;;;;1.90;1.50;;;;;;;;;;10245826;28;20043;-62
2023/10/31 08:51:31;;;;;;;3.88;1.63;;;;;;;;;;10245161;28;20047;-59
2023/10/31 08:56:32;;;;;;;1.88;1.67;;;;;;;;;;10244345;29;20058;-54
2023/10/31 09:01:33;;;;;;;3.70;1.60;;;;;;;;;;10229936;28;20111;-53
2023/10/31 09:06:34;;;;;;;3.15;1.70;;;;;;;;;;10239916;28;20498;-64
2023/10/31 09:11:35;;;;;;;4.68;1.92;;;;;;;;;;10230482;28;20027;-57
2023/10/31 09:16:35;;;;;;;3.17;1.88;;;;;;;;;;10238399;28;20035;-58
2023/10/31 09:21:36;;;;;;;4.05;1.67;;;;;;;;;;10235998;28;20031;-58
2023/10/31 09:26:37;;;;;;;2.92;1.40;;;;;;;;;;10223090;28;20047;-57
2023/10/31 09:31:38;;;;;;;7.47;1.63;;;;;;;;;;10242393;28;20043;-54
2023/10/31 09:36:39;;;;;;;12.35;1.88;;;;;;;;;;10240544;28;20083;-57
2023/10/31 09:41:40;;;;;;;2.40;1.40;;;;;;;;;;10240068;28;20543;-56
2023/10/31 09:46:41;;;;;;;3.67;1.52;;;;;;;;;;10238451;28;20090;-55
2023/10/31 09:51:41;;;;;;;3.80;1.42;;;;;;;;;;10230489;28;20048;-58
2023/10/31 09:56:43;;;;;;;2.67;1.45;;;;;;;;;;10241909;28;20038;-54
2023/10/31 10:01:44;;;;;;;4.25;1.60;;;;;;;;;;10242893;28;20434;-55
2023/10/31 10:07:01;;;;;;;1.88;1.35;;;;;;;;;;10237288;28;20480;-54
2023/10/31 10:12:02;;;;;;;6.45;1.55;;;;;;;;;;10228693;28;20043;-59
2023/10/31 10:17:21;;;;;;;5.22;1.33;;;;;;;;;;10242445;28;20028;-56
2023/10/31 10:22:28;;;;;;;3.53;1.55;;;;;;;;;;10242398;28;20055;-56
2023/10/31 10:27:29;;;;;;;3.85;1.52;;;;;;;;;;10239455;28;20023;-62
2023/10/31 10:32:29;;;;;;;3.75;1.15;;;;;;;;;;10249546;28;20399;-58
2023/10/31 10:37:31;;;;;;;1.52;1.15;;;;;;;;;;10244794;28;20058;-54
2023/10/31 10:42:36;;;;;;;5.40;1.30;;;;;;;;;;10250918;28;20042;-54
2023/10/31 10:47:39;;;;;;;1.38;1.17;;;;;;;;;;10249155;28;20475;-57
2023/10/31 10:53:13;;;;;;;1.45;1.10;;;;;;;;;;10259749;28;20050;-55
2023/10/31 10:58:40;;;;;;;2.92;1.02;;;;;;;;;;10249266;28;20031;-55
2023/10/31 11:03:41;;;;;;;4.68;1.10;;;;;;;;;;10257620;28;20594;-56
2023/10/31 11:08:44;;;;;;;1.02;1.02;;;;;;;;;;10237707;28;20298;-55
2023/10/31 11:13:45;;;;;;;1.02;0.82;;;;;;;;;;10246671;28;20039;-55
2023/10/31 11:18:46;;;;;;;0.93;0.90;;;;;;;;;;10238584;28;20033;-54
2023/10/31 11:23:58;;;;;;;2.75;1.00;;;;;;;;;;10239563;28;20046;-53
2023/10/31 11:29:06;;;;;;;1.33;0.70;;;;;;;;;;10236394;28;20395;-53
2023/10/31 11:34:06;;;;;;;0.70;0.70;;;;;;;;;;10243939;28;20081;-54
2023/10/31 11:39:26;;;;;;;2.92;0.88;;;;;;;;;;10264973;28;20031;-54
2023/10/31 11:44:27;;;;;;;4.97;1.00;;;;;;;;;;10246459;28;20027;-56
2023/10/31 11:54:32;;;;;;;1.45;0.95;;;;;;;;;;10245497;28;20079;-65
2023/10/31 11:59:39;;;;;;;2.30;0.90;;;;;;;;;;10249296;28;20031;-62
2023/10/31 12:04:40;;;;;;;2.58;1.00;;;;;;;;;;10244219;28;20115;-73
2023/10/31 12:09:48;;;;;;;0.80;0.80;;;;;;;;;;10247675;28;20137;-72
2023/10/31 12:14:48;;;;;;;0.97;0.90;;;;;;;;;;10250404;28;20038;-71
2023/10/31 12:19:54;;;;;;;2.25;0.95;;;;;;;;;;10240356;28;20028;-71
2023/10/31 12:25:08;;;;;;;1.48;1.00;;;;;;;;;;10240521;28;20039;-72
2023/10/31 12:30:10;;;;;;;2.08;1.08;;;;;;;;;;10246622;28;20102;-72
2023/10/31 12:35:17;;;;;;;1.52;0.90;;;;;;;;;;10236890;28;20038;-72
2023/10/31 12:40:20;;;;;;;3.10;1.10;;;;;;;;;;10241195;28;20062;-70
2023/10/31 12:45:21;;;;;;;1.63;1.08;;;;;;;;;;10228966;28;20027;-65
2023/10/31 12:50:22;;;;;;;2.42;0.98;;;;;;;;;;10245557;28;20035;-72
2023/10/31 12:55:25;;;;;;;1.10;1.00;;;;;;;;;;10229159;28;20091;-65
2023/10/31 13:00:34;;;;;;;2.85;0.80;;;;;;;;;;10236068;28;20034;-63
2023/10/31 13:05:36;;;;;;;2.33;1.17;;;;;;;;;;10227211;28;20035;-63
2023/10/31 13:10:36;;;;;;;2.33;1.02;;;;;;;;;;10245775;28;20557;-62
2023/10/31 13:15:37;;;;;;;2.58;0.90;;;;;;;;;;10245941;28;20102;-63
2023/10/31 13:20:38;;;;;;;3.47;1.23;;;;;;;;;;10246180;28;20029;-63
2023/10/31 13:25:39;;;;;;;1.83;0.93;;;;;;;;;;10235585;28;20023;-65
2023/10/31 13:30:40;;;;;;;1.02;0.73;;;;;;;;;;10246979;28;20046;-62
2023/10/31 13:35:41;;;;;;;2.92;0.95;;;;;;;;;;10223809;28;20446;-62
2023/10/31 13:40:41;;;;;;;6.88;1.30;;;;;;;;;;10227616;28;20039;-63
2023/10/31 13:45:42;;;;;;;4.22;0.93;;;;;;;;;;10237654;28;20023;-64
2023/10/31 13:50:42;;;;;;;1.35;1.05;;;;;;;;;;10246406;28;20051;-65
2023/10/31 13:55:43;;;;;;;1.83;1.38;;;;;;;;;;10244496;28;20097;-63
2023/10/31 14:00:47;;;;;;;1.02;0.90;;;;;;;;;;10250900;28;20102;-62
2023/10/31 14:05:48;;;;;;;2.83;0.70;;;;;;;;;;10237971;28;20035;-62
2023/10/31 14:10:48;;;;;;;1.13;0.88;;;;;;;;;;10239932;28;20045;-62
2023/10/31 14:15:49;;;;;;;3.15;1.20;;;;;;;;;;10244286;28;20023;-62
2023/10/31 14:20:49;;;;;;;1.55;0.90;;;;;;;;;;10245170;28;20086;-61
2023/10/31 14:25:50;;;;;;;1.35;0.90;;;;;;;;;;10237990;28;20043;-62
2023/10/31 14:30:52;;;;;;;1.00;1.00;;;;;;;;;;10226305;28;20031;-62
2023/10/31 14:35:52;;;;;;;2.80;1.00;;;;;;;;;;10239289;28;20027;-62
2023/10/31 14:40:53;;;;;;;20.58;1.90;;;;;;;;;;10232922;28;20051;-60
2023/10/31 14:45:54;;;;;;;9.43;1.20;;;;;;;;;;10233829;28;20030;-60
2023/10/31 14:50:56;;;;;;;2.83;1.10;;;;;;;;;;10242524;28;20134;-60
2023/10/31 14:55:57;;;;;;;1.73;1.17;;;;;;;;;;10231613;28;20032;-60
2023/10/31 15:00:58;;;;;;;5.78;1.00;;;;;;;;;;10242703;28;20479;-62
2023/10/31 15:05:59;;;;;;;1.25;1.15;;;;;;;;;;10244442;28;20027;-62
2023/10/31 15:10:59;;;;;;;5.63;1.40;;;;;;;;;;10249282;28;20133;-64
2023/10/31 15:16:00;;;;;;;2.30;1.33;;;;;;;;;;10244292;28;20047;-63
2023/10/31 15:21:00;;;;;;;1.67;1.13;;;;;;;;;;10250337;28;20109;-62
2023/10/31 15:26:01;;;;;;;1.13;1.00;;;;;;;;;;10247506;28;20032;-63
2023/10/31 15:31:03;;;;;;;1.52;1.33;;;;;;;;;;10246470;28;20046;-62
2023/10/31 15:36:04;;;;;;;1.23;1.10;;;;;;;;;;10247598;28;20042;-62
2023/10/31 15:41:06;;;;;;;1.63;0.90;;;;;;;;;;10248307;28;20023;-63
2023/10/31 15:46:07;;;;;;;0.93;0.90;;;;;;;;;;10243203;28;20035;-64
2023/10/31 15:51:07;;;;;;;1.60;0.95;;;;;;;;;;10246846;28;20039;-62
2023/10/31 15:56:09;;;;;;;1.77;1.20;;;;;;;;;;10249181;28;20436;-62
2023/10/31 16:01:10;;;;;;;3.65;1.48;;;;;;;;;;10247684;28;20664;-62
2023/10/31 16:06:10;;;;;;;1.25;1.00;;;;;;;;;;10245122;28;20023;-61
2023/10/31 16:11:12;;;;;;;2.80;1.25;;;;;;;;;;10237949;28;20050;-63
2023/10/31 16:16:12;;;;;;;2.03;1.20;;;;;;;;;;10238141;28;20039;-62
2023/10/31 16:21:20;;;;;;;4.15;1.23;;;;;;;;;;10251717;28;20028;-63
2023/10/31 16:26:21;;;;;;;1.77;1.10;;;;;;;;;;10245179;28;20108;-64
2023/10/31 16:31:23;;;;;;;0.90;0.90;;;;;;;;;;10242370;28;20028;-62
2023/10/31 16:36:24;;;;;;;1.25;0.93;;;;;;;;;;10236511;28;20035;-62
2023/10/31 16:41:25;;;;;;;5.07;0.80;;;;;;;;;;10239041;28;20031;-62
2023/10/31 16:46:26;;;;;;;1.52;1.00;;;;;;;;;;10240444;28;20499;-62
2023/10/31 16:51:28;;;;;;;0.98;0.93;;;;;;;;;;10247079;28;20102;-64
2023/10/31 16:56:29;;;;;;;1.30;0.98;;;;;;;;;;10242381;28;20042;-62
2023/10/31 17:01:30;;;;;;;1.40;1.30;;;;;;;;;;10247048;29;20495;-62
2023/10/31 17:06:31;;;;;;;3.42;0.90;;;;;;;;;;10249835;28;20513;-62
2023/10/31 17:11:32;;;;;;;1.10;1.00;;;;;;;;;;10248366;28;20035;-61
2023/10/31 17:16:32;;;;;;;1.75;1.00;;;;;;;;;;10245268;29;20050;-62
2023/10/31 17:21:33;;;;;;;1.63;1.10;;;;;;;;;;10243559;29;20023;-61
2023/10/31 17:26:33;;;;;;;1.45;1.10;;;;;;;;;;10248780;28;20038;-61
2023/10/31 17:31:38;;;;;;;1.50;0.95;;;;;;;;;;10231372;28;20027;-62
2023/10/31 17:36:39;;;;;;;3.08;1.10;;;;;;;;;;10241799;28;20069;-61
2023/10/31 17:41:40;;;;;;;1.50;1.13;;;;;;;;;;10242896;28;20039;-61
2023/10/31 17:46:41;;;;;;;1.52;1.10;;;;;;;;;;10242001;28;20031;-62
2023/10/31 17:51:42;;;;;;;1.05;1.00;;;;;;;;;;10251525;28;20051;-61
2023/10/31 17:56:43;;;;;;;2.53;1.30;;;;;;;;;;10241439;28;20499;-62
2023/10/31 18:01:44;;;;;;;2.05;0.90;;;;;;;;;;10241212;28;20031;-62
2023/10/31 18:06:45;;;;;;;2.50;1.20;;;;;;;;;;10241291;28;20082;-62
2023/10/31 18:11:46;;;;;;;1.05;0.95;;;;;;;;;;10234041;28;20035;-62
2023/10/31 18:16:46;;;;;;;2.05;1.10;;;;;;;;;;10246818;28;20538;-63
2023/10/31 18:21:47;;;;;;;1.38;1.27;;;;;;;;;;10252440;28;20023;-64
2023/10/31 18:26:48;;;;;;;1.40;1.30;;;;;;;;;;10249910;28;20031;-62
2023/10/31 18:31:49;;;;;;;1.42;1.10;;;;;;;;;;10244795;28;20034;-62
2023/10/31 18:36:49;;;;;;;2.05;1.50;;;;;;;;;;10257616;28;20031;-61
2023/10/31 18:41:50;;;;;;;1.10;1.00;;;;;;;;;;10242335;28;20038;-62
2023/10/31 18:46:50;;;;;;;2.45;1.20;;;;;;;;;;10245354;28;20035;-61
2023/10/31 18:51:51;;;;;;;2.58;1.25;;;;;;;;;;10233684;28;20051;-62
2023/10/31 18:56:56;;;;;;;3.00;1.65;;;;;;;;;;10236471;28;20042;-62
2023/10/31 19:01:58;;;;;;;8.77;2.80;;;;;;;;;;10248352;28;20039;-61
2023/10/31 19:06:58;;;;;;;4.93;2.65;;;;;;;;;;10249658;28;20032;-62
2023/10/31 19:11:59;;;;;;;7.97;3.42;;;;;;;;;;10251003;28;20035;-62
2023/10/31 19:17:00;;;;;;;11.85;4.00;;;;;;;;;;10251066;28;20507;-62
2023/10/31 19:22:00;;;;;;;12.43;4.10;;;;;;;;;;10247860;28;20069;-62
2023/10/31 19:27:02;;;;;;;10.63;4.35;;;;;;;;;;10251018;28;20035;-63
2023/10/31 19:32:03;;;;;;;14.45;5.50;;;;;;;;;;10242863;29;20119;-60
2023/10/31 19:37:04;;;;;;;15.98;4.47;;;;;;;;;;10248677;29;20042;-62
2023/10/31 19:42:05;;;;;;;22.48;5.28;;;;;;;;;;10245948;28;20036;-60
2023/10/31 19:47:06;;;;;;;16.15;4.97;;;;;;;;;;10249588;28;20122;-60
2023/10/31 19:52:07;;;;;;;20.17;4.55;;;;;;;;;;10247896;28;20426;-60
2023/10/31 19:57:07;;;;;;;12.32;5.13;;;;;;;;;;10236975;28;20458;-60
2023/10/31 20:02:08;;;;;;;17.35;4.93;;;;;;;;;;10242449;29;20035;-60
2023/10/31 20:07:09;;;;;;;17.70;4.57;;;;;;;;;;10247230;29;20031;-60
2023/10/31 20:12:10;;;;;;;13.73;5.25;;;;;;;;;;10248748;28;20031;-60
2023/10/31 20:17:11;;;;;;;21.92;4.93;;;;;;;;;;10248567;29;20034;-61
2023/10/31 20:22:11;;;;;;;15.27;4.18;;;;;;;;;;10248284;28;20426;-61
2023/10/31 20:27:12;;;;;;;22.52;4.68;;;;;;;;;;10238821;28;20435;-60
2023/10/31 20:32:12;;;;;;;18.65;4.82;;;;;;;;;;10245343;28;20368;-61
2023/10/31 20:37:13;;;;;;;17.33;6.47;;;;;;;;;;10247250;28;20031;-60
2023/10/31 20:42:14;;;;;;;17.40;5.45;;;;;;;;;;10244186;28;20043;-60
2023/10/31 20:47:14;;;;;;;24.83;5.85;;;;;;;;;;10245067;28;20019;-61
2023/10/31 20:52:15;;;;;;;20.48;5.25;;;;;;;;;;10236458;29;20074;-61
2023/10/31 20:57:15;;;;;;;17.52;5.45;;;;;;;;;;10242035;29;20031;-60
2023/10/31 21:02:18;;;;;;;20.05;5.43;;;;;;;;;;10245938;28;20038;-60
2023/10/31 21:07:19;;;;;;;14.25;4.80;;;;;;;;;;10220184;28;20027;-60
2023/10/31 21:12:19;;;;;;;19.98;5.07;;;;;;;;;;10238649;29;20031;-61
2023/10/31 21:17:20;;;;;;;12.48;4.90;;;;;;;;;;10239411;28;20041;-61
2023/10/31 21:22:21;;;;;;;17.63;5.53;;;;;;;;;;10239262;29;20049;-61
2023/10/31 21:27:22;;;;;;;16.05;4.70;;;;;;;;;;10251876;28;20038;-61
2023/10/31 21:32:22;;;;;;;14.85;5.70;;;;;;;;;;10240681;29;20040;-61
2023/10/31 21:37:23;;;;;;;14.65;5.55;;;;;;;;;;10245097;28;20047;-61
2023/10/31 21:42:24;;;;;;;16.58;5.18;;;;;;;;;;10243044;29;20031;-60
2023/10/31 21:47:24;;;;;;;16.25;5.28;;;;;;;;;;10245963;28;20387;-61
2023/10/31 21:52:25;;;;;;;13.20;5.05;;;;;;;;;;10242313;29;20459;-63
2023/10/31 21:57:26;;;;;;;14.02;4.95;;;;;;;;;;10242697;29;20042;-61
2023/10/31 22:02:27;;;;;;;13.95;5.38;;;;;;;;;;10236243;28;20043;-61
2023/10/31 22:07:28;;;;;;;17.23;5.35;;;;;;;;;;10226686;28;20098;-61
2023/10/31 22:12:28;;;;;;;13.23;4.50;;;;;;;;;;10241263;28;20443;-61
2023/10/31 22:17:29;;;;;;;11.93;5.13;;;;;;;;;;10232751;28;20023;-61
2023/10/31 22:22:33;;;;;;;19.27;5.32;;;;;;;;;;10251839;29;20031;-61
2023/10/31 22:27:35;;;;;;;22.92;5.20;;;;;;;;;;10252533;28;20118;-61
2023/10/31 22:32:36;;;;;;;14.73;4.72;;;;;;;;;;10235208;28;20039;-61
2023/10/31 22:37:37;;;;;;;10.45;4.50;;;;;;;;;;10243032;29;20520;-61
2023/10/31 22:42:37;;;;;;;8.95;4.35;;;;;;;;;;10247194;28;20039;-61
2023/10/31 22:47:39;;;;;;;10.98;5.07;;;;;;;;;;10242781;29;20043;-61
2023/10/31 22:52:39;;;;;;;10.95;3.88;;;;;;;;;;10239418;29;20043;-61
2023/10/31 22:57:40;;;;;;;11.77;4.45;;;;;;;;;;10234722;29;20051;-61
2023/10/31 23:02:41;;;;;;;10.40;5.13;;;;;;;;;;10229354;28;20134;-61
2023/10/31 23:07:42;;;;;;;14.95;4.20;;;;;;;;;;10240794;29;20031;-61
2023/10/31 23:12:43;;;;;;;9.43;4.22;;;;;;;;;;10246502;28;20375;-61
2023/10/31 23:17:45;;;;;;;7.50;4.20;;;;;;;;;;10233903;28;20027;-61
2023/10/31 23:22:46;;;;;;;6.90;3.50;;;;;;;;;;10248152;28;20034;-61
2023/10/31 23:27:46;;;;;;;9.60;4.40;;;;;;;;;;10251102;28;20042;-61
2023/10/31 23:32:47;;;;;;;13.50;4.45;;;;;;;;;;10245301;28;20039;-61
2023/10/31 23:37:48;;;;;;;8.70;4.43;;;;;;;;;;10249452;28;20431;-61
2023/10/31 23:42:48;;;;;;;12.38;4.20;;;;;;;;;;10248833;29;20031;-61
2023/10/31 23:47:49;;;;;;;9.70;4.28;;;;;;;;;;10241427;29;20027;-61
2023/10/31 23:52:49;;;;;;;9.35;4.28;;;;;;;;;;10248528;28;20051;-61
2023/10/31 23:57:50;;;;;;;8.98;4.30;;;;;;;;;;10241453;28;20040;-60
